Time;durP1;ratioP1;P1;durP2;ratioP2;P2;SDS_P1;SDS_P2;PMS_P1;PMS_P2;Temp;Humidity;BMP_temperature;BMP_pressure;BME280_temperature;BME280_humidity;BME280_pressure;Samples;Min_cycle;Max_cycle;Signal;HPM_P1;HPM_P2
2022/05/08 00:00:05;;;;;;;8.10;2.78;;;;;;;10.69;49.90;100365.50;3115154;28;20054;-71
2022/05/08 00:01:38;;;;;;;5.50;2.20;;;;;;;10.71;49.70;100360.25;3121028;28;20056;-71
2022/05/08 00:03:10;;;;;;;12.48;2.47;;;;;;;10.73;49.56;100362.78;3121453;28;20529;-71
2022/05/08 00:04:42;;;;;;;12.95;2.47;;;;;;;10.72;49.83;100356.75;3121105;28;20057;-71
2022/05/08 00:06:14;;;;;;;12.70;2.83;;;;;;;10.74;49.55;100362.75;3117426;28;20049;-70
2022/05/08 00:07:46;;;;;;;7.15;2.75;;;;;;;10.77;49.62;100360.03;3121522;28;20053;-70
2022/05/08 00:09:19;;;;;;;12.45;2.60;;;;;;;10.78;49.70;100359.13;3121589;28;20060;-70
2022/05/08 00:10:50;;;;;;;10.93;2.65;;;;;;;10.78;49.74;100359.13;3121373;28;20458;-73
2022/05/08 00:12:22;;;;;;;10.77;2.78;;;;;;;10.78;49.61;100361.72;3121573;28;20122;-71
2022/05/08 00:13:53;;;;;;;9.88;3.08;;;;;;;10.75;49.68;100354.03;3121429;28;20438;-70
2022/05/08 00:15:26;;;;;;;13.10;2.80;;;;;;;10.75;49.85;100353.19;3121107;28;20049;-73
2022/05/08 00:16:58;;;;;;;11.18;2.72;;;;;;;10.77;50.06;100360.03;3121053;28;20059;-71
2022/05/08 00:18:30;;;;;;;6.05;2.83;;;;;;;10.77;49.99;100353.97;3119249;28;20546;-71
2022/05/08 00:20:04;;;;;;;9.65;3.70;;;;;;;10.76;50.16;100353.09;3118256;28;20113;-71
2022/05/08 00:21:36;;;;;;;9.52;3.55;;;;;;;10.73;50.21;100350.63;3121145;28;20441;-71
2022/05/08 00:23:07;;;;;;;10.25;2.75;;;;;;;10.70;50.04;100354.19;3123184;28;20049;-71
2022/05/08 00:24:41;;;;;;;6.38;2.70;;;;;;;10.70;50.26;100354.19;3121642;28;20053;-70
2022/05/08 00:26:13;;;;;;;7.18;2.40;;;;;;;10.65;50.35;100350.91;3121079;28;20092;-70
2022/05/08 00:27:45;;;;;;;5.50;2.63;;;;;;;10.66;50.24;100344.78;3120998;28;20076;-70
2022/05/08 00:29:17;;;;;;;6.90;2.35;;;;;;;10.65;50.08;100352.69;3120967;28;20054;-70
2022/05/08 00:30:47;;;;;;;9.38;2.70;;;;;;;10.63;50.38;100346.66;3120928;28;20054;-71
2022/05/08 00:32:20;;;;;;;6.45;2.20;;;;;;;10.62;50.32;100350.19;3120859;28;20057;-70
2022/05/08 00:33:53;;;;;;;6.53;2.00;;;;;;;10.61;50.32;100351.91;3121211;28;20056;-70
2022/05/08 00:35:24;;;;;;;7.53;2.08;;;;;;;10.60;50.20;100345.03;3115169;28;20052;-70
2022/05/08 00:36:55;;;;;;;12.07;2.78;;;;;;;10.57;50.21;100345.13;3120992;28;20058;-71
2022/05/08 00:38:27;;;;;;;7.03;2.30;;;;;;;10.57;50.25;100344.28;3120779;28;20061;-70
2022/05/08 00:40:00;;;;;;;12.98;2.63;;;;;;;10.54;50.62;100333.97;3120521;28;20111;-71
2022/05/08 00:41:32;;;;;;;7.22;2.58;;;;;;;10.55;50.60;100346.94;3119185;28;20111;-69
2022/05/08 00:43:32;;;;;;;13.48;3.08;;;;;;;10.41;50.48;100313.59;3118502;28;20083;-73
2022/05/08 00:45:05;;;;;;;8.07;3.30;;;;;;;10.49;50.64;100323.72;3120802;28;20053;-70
2022/05/08 00:46:37;;;;;;;9.77;3.50;;;;;;;10.57;50.63;100339.91;3120794;28;20053;-70
2022/05/08 00:48:08;;;;;;;15.70;4.43;;;;;;;10.54;50.69;100336.59;3120828;28;20053;-70
2022/05/08 00:49:40;;;;;;;16.45;4.03;;;;;;;10.54;50.81;100332.22;3121257;28;20199;-71
2022/05/08 00:51:14;;;;;;;11.73;4.53;;;;;;;10.57;50.88;100333.88;3121032;28;20065;-70
2022/05/08 00:52:46;;;;;;;14.32;4.28;;;;;;;10.57;51.25;100342.53;3120783;28;20049;-71
2022/05/08 00:54:18;;;;;;;12.88;4.50;;;;;;;10.57;51.29;100344.28;3114402;28;20053;-70
2022/05/08 00:55:51;;;;;;;10.00;4.30;;;;;;;10.57;51.43;100339.09;3120988;28;20052;-71
2022/05/08 00:57:23;;;;;;;15.00;5.32;;;;;;;10.50;51.26;100334.97;3116775;28;20049;-71
2022/05/08 00:58:56;;;;;;;10.98;3.90;;;;;;;10.54;51.48;100340.03;3117380;28;20099;-71
2022/05/08 01:00:28;;;;;;;13.43;3.88;;;;;;;10.51;51.86;100336.69;3120554;28;20071;-70
2022/05/08 01:02:00;;;;;;;16.02;4.20;;;;;;;10.50;51.79;100333.25;3120954;28;20049;-72
2022/05/08 01:03:32;;;;;;;13.85;3.80;;;;;;;10.33;51.90;100312.19;3120728;28;20660;-73
2022/05/08 01:05:05;;;;;;;15.23;4.68;;;;;;;10.52;51.85;100347.03;3120897;28;20564;-72
2022/05/08 01:06:37;;;;;;;9.63;3.67;;;;;;;10.52;52.19;100341.00;3120991;28;20152;-71
2022/05/08 01:08:09;;;;;;;11.02;4.60;;;;;;;10.49;51.88;100334.13;3120633;28;20312;-72
2022/05/08 01:09:41;;;;;;;12.70;4.07;;;;;;;10.25;52.14;100291.59;3120844;28;20049;-71
2022/05/08 01:11:15;;;;;;;11.02;3.53;;;;;;;10.51;52.31;100339.31;3120756;28;20111;-71
2022/05/08 01:12:46;;;;;;;;;;;;;;;10.51;51.74;100339.31;3121271;28;20139;-72
2022/05/08 01:14:18;;;;;;;11.15;3.70;;;;;;;10.49;52.30;100336.75;3120649;28;19932;-72
2022/05/08 01:15:50;;;;;;;16.27;3.65;;;;;;;10.45;52.31;100336.00;3120594;28;20491;-71
2022/05/08 01:17:22;;;;;;;8.88;3.53;;;;;;;10.47;52.29;100336.81;3120950;28;20123;-72
2022/05/08 01:18:54;;;;;;;12.35;3.17;;;;;;;10.48;52.32;100346.31;3120951;28;20057;-72
2022/05/08 01:20:26;;;;;;;10.45;3.80;;;;;;;10.49;52.59;100341.94;3120661;28;20156;-72
2022/05/08 01:21:59;;;;;;;7.78;3.28;;;;;;;10.50;52.38;100338.47;3120511;28;20069;-72
2022/05/08 01:23:31;;;;;;;8.20;2.88;;;;;;;10.50;52.80;100338.47;3123088;28;20056;-72
2022/05/08 01:25:02;;;;;;;12.55;3.65;;;;;;;10.48;52.49;100338.50;3120648;28;20049;-72
2022/05/08 01:26:34;;;;;;;8.88;3.28;;;;;;;10.37;52.74;100325.00;3120658;28;20049;-72
2022/05/08 01:28:07;;;;;;;12.88;3.53;;;;;;;10.49;52.70;100336.75;3120731;28;20049;-71
2022/05/08 01:29:39;;;;;;;9.80;3.03;;;;;;;10.51;52.83;100344.50;3114226;28;20207;-71
2022/05/08 01:31:10;;;;;;;10.63;3.30;;;;;;;10.47;52.73;100335.97;3120928;28;20148;-71
2022/05/08 01:32:41;;;;;;;5.97;3.00;;;;;;;10.50;52.90;100343.66;3120720;28;20049;-71
2022/05/08 01:34:13;;;;;;;10.10;4.18;;;;;;;10.35;53.16;100318.16;3120533;28;20114;-70
2022/05/08 01:35:45;;;;;;;11.85;3.85;;;;;;;10.50;53.19;100343.66;3120657;28;20438;-71
2022/05/08 01:37:19;;;;;;;13.77;3.80;;;;;;;10.52;53.10;100338.38;3120553;28;20119;-71
2022/05/08 01:38:51;;;;;;;9.45;3.63;;;;;;;10.50;53.31;100335.84;3120384;28;20486;-70
2022/05/08 01:40:23;;;;;;;7.40;3.60;;;;;;;10.51;53.51;100342.75;3120842;28;20154;-72
2022/05/08 01:41:54;;;;;;;7.90;3.17;;;;;;;10.47;53.40;100330.75;3120314;28;20160;-70
2022/05/08 01:43:31;;;;;;;7.65;3.35;;;;;;;10.48;53.79;100335.06;3120471;28;20577;-70
2022/05/08 01:45:03;;;;;;;9.35;3.50;;;;;;;10.44;53.89;100333.44;3120693;28;20108;-70
2022/05/08 01:46:35;;;;;;;10.43;3.58;;;;;;;10.46;53.88;100332.50;3120376;28;20572;-70
2022/05/08 01:48:23;;;;;;;7.10;3.28;;;;;;;10.45;54.02;100340.38;3120748;28;20054;-70
2022/05/08 01:49:54;;;;;;;7.45;3.25;;;;;;;10.43;53.80;100337.81;3120729;28;20450;-70
2022/05/08 01:51:26;;;;;;;9.98;3.72;;;;;;;10.41;53.86;100337.03;3123141;28;20083;-70
2022/05/08 01:52:59;;;;;;;8.73;3.10;;;;;;;10.41;54.31;100333.56;3122874;28;20099;-70
2022/05/08 01:54:31;;;;;;;6.10;3.13;;;;;;;10.39;54.29;100333.63;3123048;28;20057;-70
2022/05/08 01:56:07;;;;;;;9.35;3.03;;;;;;;10.38;54.19;100339.75;3122972;28;20049;-70
2022/05/08 01:57:39;;;;;;;4.68;2.70;;;;;;;10.36;54.47;100340.72;3116690;28;20065;-70
2022/05/08 01:59:11;;;;;;;7.13;3.10;;;;;;;10.31;54.45;100329.59;3122922;28;20049;-70
2022/05/08 02:00:44;;;;;;;6.95;3.70;;;;;;;10.29;54.69;100340.03;3122843;28;20084;-70
2022/05/08 02:02:15;;;;;;;9.07;2.90;;;;;;;10.29;54.91;100339.22;3122679;28;20111;-70
2022/05/08 02:03:47;;;;;;;9.32;3.20;;;;;;;10.27;54.93;100336.69;3122801;28;20219;-70
2022/05/08 02:05:19;;;;;;;7.15;2.90;;;;;;;10.20;55.01;100336.00;3122796;28;20053;-71
2022/05/08 02:06:51;;;;;;;6.25;3.05;;;;;;;10.24;55.18;100339.34;3122757;28;20057;-70
2022/05/08 02:08:25;;;;;;;10.32;3.17;;;;;;;10.23;55.19;100340.22;3122884;28;20511;-70
2022/05/08 02:09:56;;;;;;;7.88;3.83;;;;;;;9.91;55.25;100289.31;3117131;28;20079;-71
2022/05/08 02:11:28;;;;;;;7.03;3.28;;;;;;;10.20;55.39;100341.22;3123454;28;20050;-70
2022/05/08 02:13:00;;;;;;;8.88;3.08;;;;;;;9.97;55.29;100294.31;3122669;28;20049;-71
2022/05/08 02:14:31;;;;;;;8.65;3.35;;;;;;;9.90;55.53;100290.22;3122738;28;20053;-71
2022/05/08 02:16:04;;;;;;;8.82;3.47;;;;;;;10.16;55.67;100336.16;3122625;28;20430;-70
2022/05/08 02:17:36;;;;;;;6.85;3.28;;;;;;;10.16;55.66;100339.59;3122512;28;20057;-71
2022/05/08 02:19:08;;;;;;;7.07;3.17;;;;;;;10.13;55.96;100339.72;3122837;28;20114;-70
2022/05/08 02:20:40;;;;;;;7.13;3.40;;;;;;;9.85;55.91;100295.59;3122808;28;20111;-70
2022/05/08 02:22:11;;;;;;;8.60;3.22;;;;;;;10.11;56.07;100335.47;3122509;28;20081;-70
2022/05/08 02:23:44;;;;;;;16.55;4.68;;;;;;;10.08;56.37;100333.81;3122526;28;20053;-70
2022/05/08 02:25:16;;;;;;;12.98;3.95;;;;;;;10.08;56.42;100336.41;3113338;28;20485;-70
2022/05/08 02:26:47;;;;;;;8.85;3.40;;;;;;;10.07;56.36;100339.09;3119468;28;20119;-71
2022/05/08 02:28:19;;;;;;;17.13;4.00;;;;;;;10.03;56.34;100334.00;3122539;28;20214;-70
2022/05/08 02:29:52;;;;;;;10.48;3.25;;;;;;;9.97;56.75;100329.00;3122877;28;20092;-70
2022/05/08 02:31:24;;;;;;;13.33;4.93;;;;;;;9.98;56.93;100333.28;3122691;28;20079;-70
2022/05/08 02:32:56;;;;;;;7.03;3.97;;;;;;;9.98;56.92;100338.50;3116551;28;20054;-70
2022/05/08 02:34:28;;;;;;;7.63;3.63;;;;;;;9.94;57.17;100342.13;3122682;28;20106;-71
2022/05/08 02:35:59;;;;;;;10.52;4.68;;;;;;;9.83;57.27;100327.75;3122502;28;20171;-71
2022/05/08 02:37:31;;;;;;;9.32;3.97;;;;;;;9.91;57.50;100341.34;3122501;28;20446;-70
2022/05/08 02:39:05;;;;;;;10.23;4.07;;;;;;;9.91;57.50;100338.75;3122448;28;20049;-70
2022/05/08 02:40:37;;;;;;;9.40;3.65;;;;;;;9.91;57.52;100341.34;3122361;28;20057;-71
2022/05/08 02:42:09;;;;;;;12.98;4.15;;;;;;;9.90;57.60;100335.28;3122653;28;20053;-71
2022/05/08 02:43:41;;;;;;;19.92;3.95;;;;;;;9.88;57.67;100336.25;3122293;28;20060;-72
2022/05/08 02:45:13;;;;;;;9.32;4.35;;;;;;;9.87;57.80;100337.16;3122550;28;20057;-71
2022/05/08 02:46:45;;;;;;;8.52;4.50;;;;;;;9.82;58.01;100331.25;3122339;28;20507;-70
2022/05/08 02:48:17;;;;;;;9.55;4.00;;;;;;;9.81;58.04;100338.22;3122349;28;20053;-71
2022/05/08 02:49:48;;;;;;;7.57;3.97;;;;;;;9.81;58.09;100343.41;3122300;28;20065;-71
2022/05/08 02:51:20;;;;;;;10.68;4.03;;;;;;;9.78;57.91;100335.72;3122255;28;20059;-71
2022/05/08 02:52:52;;;;;;;8.88;4.28;;;;;;;9.82;57.98;100341.66;3122507;28;20056;-71
2022/05/08 02:54:25;;;;;;;11.23;4.57;;;;;;;9.82;58.29;100339.03;3122258;28;20061;-71
2022/05/08 02:59:41;;;;;;;9.38;4.38;;;;;;;9.76;58.33;100340.09;3122119;28;20053;-71
2022/05/08 03:01:13;;;;;;;10.52;4.22;;;;;;;9.73;58.30;100345.41;3118064;28;20061;-71
2022/05/08 03:02:43;;;;;;;8.55;3.95;;;;;;;9.73;58.52;100350.59;3121515;28;20112;-71
2022/05/08 03:04:15;;;;;;;9.45;4.07;;;;;;;9.70;58.57;100340.31;3122135;28;20555;-71
2022/05/08 03:05:48;;;;;;;9.35;4.60;;;;;;;9.68;58.42;100347.31;3121778;28;20053;-71
2022/05/08 03:07:20;;;;;;;9.75;4.72;;;;;;;9.67;58.67;100340.41;3122273;28;20481;-71
2022/05/08 03:08:52;;;;;;;9.68;4.40;;;;;;;9.63;58.94;100344.88;3122086;28;20053;-71
2022/05/08 03:10:25;;;;;;;8.30;4.13;;;;;;;9.64;58.89;100350.91;3122251;28;20082;-71
2022/05/08 03:11:56;;;;;;;13.88;4.05;;;;;;;9.60;58.91;100352.78;3121986;28;20053;-71
2022/05/08 03:13:29;;;;;;;9.20;4.25;;;;;;;9.56;59.03;100354.63;3122080;28;20126;-71
2022/05/08 03:15:00;;;;;;;9.40;4.65;;;;;;;9.54;59.19;100358.16;3122083;28;20045;-71
2022/05/08 03:16:32;;;;;;;14.20;4.18;;;;;;;9.54;59.08;100355.56;3115617;28;20674;-71
2022/05/08 03:18:05;;;;;;;8.43;4.57;;;;;;;9.51;59.31;100356.50;3121737;28;20053;-71
2022/05/08 03:19:36;;;;;;;13.63;4.88;;;;;;;9.48;59.46;100350.56;3122159;28;20533;-71
2022/05/08 03:21:08;;;;;;;9.20;3.80;;;;;;;9.46;59.45;100347.16;3121529;28;20052;-71
2022/05/08 03:22:40;;;;;;;7.68;4.28;;;;;;;9.47;59.63;100360.13;3121954;28;20140;-71
2022/05/08 03:24:12;;;;;;;8.68;4.50;;;;;;;9.47;59.77;100360.13;3121953;28;20057;-71
2022/05/08 03:25:45;;;;;;;9.57;4.22;;;;;;;9.43;59.96;100353.28;3121933;28;20049;-71
2022/05/08 03:27:17;;;;;;;;;;;;;;;9.44;59.38;100367.16;3122422;28;20576;-71
2022/05/08 03:28:49;;;;;;;10.73;5.18;;;;;;;9.31;59.49;100348.50;3121661;28;20353;-71
2022/05/08 03:30:21;;;;;;;11.80;4.90;;;;;;;9.43;59.74;100368.91;3121941;28;20505;-71
2022/05/08 03:31:53;;;;;;;9.70;4.75;;;;;;;9.43;59.94;100366.28;3121786;28;20434;-70
2022/05/08 03:33:24;;;;;;;8.77;4.57;;;;;;;9.46;60.08;100365.34;3121637;28;20131;-71
2022/05/08 03:34:56;;;;;;;14.13;5.22;;;;;;;9.47;59.94;100364.47;3121734;28;20049;-71
2022/05/08 03:36:28;;;;;;;10.82;4.88;;;;;;;9.48;59.94;100367.00;3121625;28;20045;-71
2022/05/08 03:38:00;;;;;;;9.35;4.45;;;;;;;9.50;60.01;100369.56;3121722;28;20502;-70
2022/05/08 03:39:32;;;;;;;10.70;5.25;;;;;;;9.52;60.09;100370.34;3121966;28;20057;-71
2022/05/08 03:41:07;;;;;;;8.90;4.63;;;;;;;9.52;60.20;100372.94;3121775;28;20053;-71
2022/05/08 03:42:38;;;;;;;8.63;4.70;;;;;;;9.53;60.38;100372.06;3122008;28;20136;-71
2022/05/08 03:44:10;;;;;;;17.35;4.80;;;;;;;9.54;60.31;100365.97;3121659;28;20053;-71
2022/05/08 03:45:42;;;;;;;10.63;4.47;;;;;;;9.52;60.35;100372.94;3121553;28;20508;-71
2022/05/08 03:47:13;;;;;;;10.13;4.63;;;;;;;9.52;60.41;100372.94;3121686;28;20049;-70
2022/05/08 03:48:45;;;;;;;10.50;4.63;;;;;;;9.50;60.61;100369.56;3121475;28;20060;-71
2022/05/08 03:50:17;;;;;;;12.38;4.80;;;;;;;9.52;60.62;100378.16;3121709;28;20058;-71
2022/05/08 03:51:49;;;;;;;7.57;4.32;;;;;;;9.51;60.63;100381.66;3121589;28;20053;-71
2022/05/08 03:53:21;;;;;;;11.48;5.63;;;;;;;9.50;60.64;100377.38;3121499;28;20053;-71
2022/05/08 03:54:53;;;;;;;14.15;5.07;;;;;;;9.43;60.66;100362.84;3121665;28;20057;-71
2022/05/08 03:56:27;;;;;;;9.85;4.90;;;;;;;9.50;60.62;100383.41;3121445;28;20048;-71
2022/05/08 03:57:59;;;;;;;15.95;4.88;;;;;;;9.48;60.68;100386.97;3121490;28;20053;-71
2022/05/08 03:59:31;;;;;;;15.48;5.13;;;;;;;9.46;60.52;100381.78;3121434;28;20507;-71
2022/05/08 04:01:03;;;;;;;10.88;4.55;;;;;;;9.41;60.74;100378.50;3121632;28;20077;-70
2022/05/08 04:02:35;;;;;;;11.80;4.88;;;;;;;9.43;60.55;100379.28;3114837;28;20132;-71
2022/05/08 04:04:07;;;;;;;15.65;4.97;;;;;;;9.41;60.55;100382.88;3120534;28;20136;-71
2022/05/08 04:05:39;;;;;;;16.85;5.47;;;;;;;9.04;60.45;100324.19;3118535;28;20140;-71
2022/05/08 04:07:12;;;;;;;16.65;4.78;;;;;;;9.41;60.65;100391.50;3121509;28;20045;-71
2022/05/08 04:08:44;;;;;;;13.70;4.93;;;;;;;9.41;60.37;100388.06;3121430;28;20052;-71
2022/05/08 04:10:16;;;;;;;15.15;5.50;;;;;;;9.42;60.68;100389.75;3121373;28;20111;-71
2022/05/08 04:11:49;;;;;;;16.60;5.50;;;;;;;9.42;60.61;100393.19;3121371;28;20052;-70
2022/05/08 04:13:21;;;;;;;12.82;5.05;;;;;;;9.42;60.46;100389.75;3120949;28;20466;-70
2022/05/08 04:14:53;;;;;;;10.07;4.95;;;;;;;9.42;60.54;100394.94;3120613;28;20049;-70
2022/05/08 04:16:26;;;;;;;11.10;4.88;;;;;;;9.43;60.47;100388.84;3121007;28;20459;-69
2022/05/08 04:17:58;;;;;;;13.63;5.22;;;;;;;9.41;60.66;100382.88;3118346;28;20442;-70
2022/05/08 04:19:30;;;;;;;17.23;5.47;;;;;;;9.38;60.82;100380.34;3118311;28;20138;-69
2022/05/08 04:21:02;;;;;;;21.77;6.80;;;;;;;9.44;60.96;100391.41;3121290;28;20565;-70
2022/05/08 04:24:22;;;;;;;19.08;5.82;;;;;;;9.47;60.68;100390.47;3121389;28;20061;-70
2022/05/08 04:25:54;;;;;;;15.30;6.32;;;;;;;9.48;60.66;100386.97;3121020;28;20103;-72
2022/05/08 04:27:27;;;;;;;11.55;5.13;;;;;;;9.50;60.85;100392.97;3120928;28;20042;-70
2022/05/08 04:28:58;;;;;;;12.93;5.03;;;;;;;9.49;60.71;100386.06;3121213;28;20124;-69
2022/05/08 04:30:30;;;;;;;15.40;5.90;;;;;;;9.51;60.93;100386.88;3121217;28;20151;-69
2022/05/08 04:32:02;;;;;;;12.82;4.80;;;;;;;9.55;60.75;100391.94;3121176;28;20064;-69
2022/05/08 04:33:33;;;;;;;20.08;5.70;;;;;;;9.58;60.92;100393.56;3121172;28;20061;-71
2022/05/08 04:35:05;;;;;;;15.95;4.85;;;;;;;9.60;61.09;100393.53;3121006;28;20084;-70
2022/05/08 04:36:37;;;;;;;7.85;4.70;;;;;;;9.55;61.00;100378.94;3121207;28;20053;-70
2022/05/08 04:38:11;;;;;;;14.15;4.97;;;;;;;9.69;60.81;100386.28;3120828;28;20061;-69
2022/05/08 04:39:43;;;;;;;14.75;5.35;;;;;;;9.73;60.61;100379.22;3120970;28;20140;-70
2022/05/08 04:41:15;;;;;;;13.15;4.97;;;;;;;9.78;60.64;100379.94;3121224;28;20092;-72
2022/05/08 04:42:48;;;;;;;17.05;5.95;;;;;;;9.75;60.71;100370.47;3120790;28;20536;-70
2022/05/08 04:44:20;;;;;;;14.13;5.97;;;;;;;9.61;60.70;100341.47;3120898;28;20107;-70
2022/05/08 04:45:52;;;;;;;16.77;5.90;;;;;;;9.90;60.34;100392.53;3119359;28;20565;-70
2022/05/08 04:47:24;;;;;;;12.20;5.70;;;;;;;9.93;60.29;100384.63;3121108;28;20049;-69
2022/05/08 04:48:56;;;;;;;19.17;5.47;;;;;;;9.98;60.33;100387.09;3121074;28;20065;-70
2022/05/08 04:50:28;;;;;;;15.13;6.15;;;;;;;9.91;60.26;100377.75;3120815;28;20104;-69
2022/05/08 04:51:59;;;;;;;17.77;6.82;;;;;;;10.05;60.01;100385.97;3121104;28;20188;-69
2022/05/08 04:53:31;;;;;;;15.70;5.95;;;;;;;10.09;59.77;100390.19;3120666;28;20065;-70
2022/05/08 04:55:03;;;;;;;15.90;6.38;;;;;;;10.07;59.79;100381.56;3120814;28;20086;-69
2022/05/08 04:56:35;;;;;;;12.30;5.93;;;;;;;10.10;59.58;100384.06;3120837;28;20056;-70
2022/05/08 04:58:09;;;;;;;15.15;5.43;;;;;;;10.10;59.33;100375.41;3120742;28;20084;-70
2022/05/08 04:59:40;;;;;;;12.00;5.20;;;;;;;10.22;59.55;100380.19;3120824;28;20088;-70
2022/05/08 05:01:12;;;;;;;18.23;5.47;;;;;;;10.08;59.24;100349.44;3120363;28;20049;-69
2022/05/08 05:02:44;;;;;;;8.25;4.88;;;;;;;10.33;59.15;100383.31;3120722;28;20079;-69
2022/05/08 05:04:16;;;;;;;14.65;5.25;;;;;;;10.39;58.76;100390.91;3120822;28;20049;-71
2022/05/08 05:05:47;;;;;;;16.40;5.45;;;;;;;10.39;58.61;100380.50;3120654;28;20053;-71
2022/05/08 05:07:19;;;;;;;16.83;5.35;;;;;;;10.48;58.23;100380.16;3120578;28;20076;-68
2022/05/08 05:08:51;;;;;;;12.73;5.32;;;;;;;10.54;58.23;100376.50;3120664;28;20049;-70
2022/05/08 05:10:23;;;;;;;10.20;4.93;;;;;;;10.62;57.97;100384.03;3120886;28;20049;-69
2022/05/08 05:11:56;;;;;;;9.65;4.70;;;;;;;10.65;58.09;100386.53;3120866;28;20141;-70
2022/05/08 05:13:30;;;;;;;9.52;4.40;;;;;;;10.63;58.09;100376.16;3120414;28;20041;-70
2022/05/08 05:15:02;;;;;;;10.15;4.35;;;;;;;10.77;57.94;100390.47;3120922;28;20108;-69
2022/05/08 05:16:34;;;;;;;9.55;5.20;;;;;;;10.82;57.84;100391.97;3108816;28;20132;-69
2022/05/08 05:18:06;;;;;;;12.48;4.95;;;;;;;10.78;57.77;100374.75;3118713;28;20084;-71
2022/05/08 05:19:38;;;;;;;8.70;4.68;;;;;;;10.95;57.75;100394.13;3120615;28;20499;-69
2022/05/08 05:21:10;;;;;;;12.45;4.43;;;;;;;11.01;57.57;100394.75;3120204;28;20466;-69
2022/05/08 05:22:41;;;;;;;12.35;4.25;;;;;;;11.09;57.31;100395.31;3120665;28;20092;-70
2022/05/08 05:24:14;;;;;;;9.52;4.43;;;;;;;11.21;57.29;100394.00;3120508;28;20053;-71
2022/05/08 05:25:46;;;;;;;15.35;5.65;;;;;;;11.30;56.98;100392.81;3122210;28;20506;-69
2022/05/08 05:27:16;;;;;;;11.60;4.90;;;;;;;11.30;56.77;100388.44;3123029;28;20057;-69
2022/05/08 05:28:51;;;;;;;11.15;4.38;;;;;;;11.29;56.57;100384.09;3123283;28;20708;-69
2022/05/08 05:30:23;;;;;;;10.95;4.45;;;;;;;11.32;56.69;100388.34;3123351;28;20505;-69
2022/05/08 05:31:55;;;;;;;20.23;5.10;;;;;;;11.38;56.78;100393.34;3123376;28;20065;-70
2022/05/08 05:33:27;;;;;;;13.80;4.47;;;;;;;11.44;56.73;100387.88;3123203;28;20506;-70
2022/05/08 05:34:59;;;;;;;11.93;5.32;;;;;;;11.47;56.44;100394.72;3123128;28;20514;-70
2022/05/08 05:36:31;;;;;;;9.50;4.32;;;;;;;11.49;55.91;100390.31;3123034;28;20053;-70
2022/05/08 05:38:03;;;;;;;16.83;5.00;;;;;;;11.49;55.75;100383.34;3123146;28;20041;-70
2022/05/08 05:39:35;;;;;;;10.98;4.47;;;;;;;11.51;55.79;100388.50;3116585;28;20430;-70
2022/05/08 05:41:07;;;;;;;9.13;4.80;;;;;;;11.49;55.96;100388.56;3123293;28;20098;-69
2022/05/08 05:42:39;;;;;;;13.38;5.13;;;;;;;11.35;55.96;100376.03;3123190;28;20069;-70
2022/05/08 05:44:12;;;;;;;13.50;5.50;;;;;;;11.46;55.91;100388.66;3122897;28;20053;-70
2022/05/08 05:45:44;;;;;;;11.30;5.03;;;;;;;11.45;56.02;100392.19;3123350;28;20395;-70
2022/05/08 05:49:04;;;;;;;8.93;4.80;;;;;;;11.53;56.28;100387.50;3123268;28;20085;-70
2022/05/08 05:50:36;;;;;;;13.48;4.40;;;;;;;11.49;55.88;100372.91;3123048;28;20060;-70
2022/05/08 05:52:08;;;;;;;12.07;4.57;;;;;;;11.51;56.21;100376.31;3122969;28;20429;-70
2022/05/08 05:53:40;;;;;;;11.63;4.60;;;;;;;11.67;56.39;100386.13;3123053;28;20395;-70
2022/05/08 05:55:12;;;;;;;15.13;4.88;;;;;;;11.73;56.32;100384.09;3116371;28;20107;-70
2022/05/08 05:56:44;;;;;;;8.38;4.68;;;;;;;11.79;56.36;100380.41;3122937;28;20132;-70
2022/05/08 05:58:16;;;;;;;7.53;3.55;;;;;;;11.87;56.15;100380.13;3122915;28;20481;-70
2022/05/08 05:59:48;;;;;;;11.68;3.67;;;;;;;11.90;56.58;100380.00;3122996;28;20131;-70
2022/05/08 06:01:20;;;;;;;9.73;4.10;;;;;;;12.04;56.17;100390.72;3122829;28;20049;-70
2022/05/08 06:02:52;;;;;;;7.70;3.45;;;;;;;12.13;56.29;100386.88;3122713;28;20450;-70
2022/05/08 06:04:24;;;;;;;15.32;5.32;;;;;;;12.23;55.64;100386.41;3123074;28;20442;-70
2022/05/08 06:05:56;;;;;;;8.35;4.53;;;;;;;12.36;55.36;100385.88;3122528;28;20056;-70
2022/05/08 06:07:28;;;;;;;13.98;3.45;;;;;;;12.43;55.32;100389.94;3122878;28;20103;-70
2022/05/08 06:08:59;;;;;;;9.02;3.42;;;;;;;12.49;54.92;100382.69;3122626;28;20049;-70
2022/05/08 06:10:31;;;;;;;8.85;4.32;;;;;;;12.53;55.15;100386.00;3122772;28;20061;-70
2022/05/08 06:12:04;;;;;;;8.10;3.50;;;;;;;12.57;54.67;100379.75;3122792;28;20072;-70
2022/05/08 06:13:36;;;;;;;14.38;3.63;;;;;;;12.64;54.83;100381.16;3122764;28;20077;-70
2022/05/08 06:15:10;;;;;;;10.90;3.63;;;;;;;12.70;54.89;100380.03;3122829;28;20134;-70
2022/05/08 06:16:42;;;;;;;8.40;3.97;;;;;;;12.83;54.83;100381.16;3122135;28;20439;-70
2022/05/08 06:18:14;;;;;;;8.98;3.28;;;;;;;12.80;54.92;100368.25;3117822;28;20050;-70
2022/05/08 06:19:46;;;;;;;8.30;3.83;;;;;;;12.90;54.68;100385.22;3122814;28;20136;-70
2022/05/08 06:21:17;;;;;;;6.72;3.65;;;;;;;12.92;54.79;100385.97;3120998;28;20061;-70
2022/05/08 06:22:49;;;;;;;12.38;3.40;;;;;;;12.94;55.18;100381.53;3122539;28;20081;-70
2022/05/08 06:24:21;;;;;;;8.00;3.50;;;;;;;13.00;54.95;100382.19;3122526;28;20049;-70
2022/05/08 06:25:53;;;;;;;9.00;3.63;;;;;;;13.00;54.66;100390.88;3122427;28;20057;-70
2022/05/08 06:27:25;;;;;;;7.85;3.20;;;;;;;13.02;54.48;100381.19;3122650;28;20119;-70
2022/05/08 06:28:58;;;;;;;7.72;3.75;;;;;;;13.03;54.55;100384.66;3122587;28;20510;-71
2022/05/08 06:30:31;;;;;;;9.73;4.05;;;;;;;12.95;54.97;100385.88;3122478;28;20057;-70
2022/05/08 06:32:04;;;;;;;6.72;3.80;;;;;;;12.98;55.32;100390.06;3122685;28;20056;-70
2022/05/08 06:33:36;;;;;;;15.10;4.60;;;;;;;13.06;55.18;100387.13;3122628;28;20052;-70
2022/05/08 06:35:08;;;;;;;8.38;4.03;;;;;;;13.09;54.97;100376.53;3122374;28;20775;-70
2022/05/08 06:36:40;;;;;;;14.95;4.50;;;;;;;13.13;54.70;100383.28;3121415;28;20053;-70
2022/05/08 06:38:12;;;;;;;7.03;4.15;;;;;;;13.10;54.77;100373.84;3121959;28;20493;-70
2022/05/08 06:39:44;;;;;;;16.23;4.22;;;;;;;13.21;54.83;100386.41;3122617;28;20068;-70
2022/05/08 06:41:16;;;;;;;6.72;4.18;;;;;;;13.26;54.75;100392.31;3122356;28;20054;-70
2022/05/08 06:42:48;;;;;;;8.02;4.18;;;;;;;13.37;54.47;100378.75;3122587;28;20053;-70
2022/05/08 06:44:20;;;;;;;8.93;3.95;;;;;;;13.49;54.25;100383.38;3122391;28;20053;-70
2022/05/08 06:45:53;;;;;;;9.00;4.72;;;;;;;13.58;53.39;100376.84;3122455;28;20568;-71
2022/05/08 06:47:25;;;;;;;13.68;4.72;;;;;;;13.63;53.21;100380.09;3122311;28;20045;-70
2022/05/08 06:48:57;;;;;;;9.65;4.18;;;;;;;13.68;53.09;100372.84;3122054;28;20041;-68
2022/05/08 06:50:30;;;;;;;13.00;4.45;;;;;;;13.70;52.75;100365.78;3122337;28;20446;-70
2022/05/08 06:52:02;;;;;;;10.82;4.20;;;;;;;13.76;52.68;100367.25;3122469;28;20045;-68
2022/05/08 06:53:34;;;;;;;7.43;3.95;;;;;;;13.84;52.60;100368.56;3109770;28;20518;-70
2022/05/08 06:55:07;;;;;;;9.77;3.85;;;;;;;13.86;52.16;100366.72;3121296;28;20057;-69
2022/05/08 06:56:41;;;;;;;7.43;4.03;;;;;;;13.98;51.67;100370.50;3121975;28;20056;-69
2022/05/08 06:58:13;;;;;;;9.35;4.30;;;;;;;14.08;51.90;100373.50;3121833;28;20093;-69
2022/05/08 07:01:34;;;;;;;9.38;4.05;;;;;;;14.27;51.43;100361.16;3118159;28;20076;-69
2022/05/08 07:03:06;;;;;;;11.25;4.13;;;;;;;14.36;51.57;100366.84;3122116;28;20041;-69
2022/05/08 07:04:38;;;;;;;11.93;4.50;;;;;;;14.43;51.15;100355.97;3122374;28;20054;-69
2022/05/08 07:06:10;;;;;;;7.05;4.03;;;;;;;14.55;50.86;100359.75;3122077;28;20045;-68
2022/05/08 07:07:42;;;;;;;8.48;4.20;;;;;;;14.70;50.60;100361.56;3121894;28;20053;-69
2022/05/08 07:09:14;;;;;;;11.30;4.13;;;;;;;14.86;50.59;100358.13;3122284;28;20431;-70
2022/05/08 07:10:46;;;;;;;11.80;4.30;;;;;;;14.95;49.96;100353.22;3122335;28;20060;-71
2022/05/08 07:12:18;;;;;;;12.23;3.95;;;;;;;15.05;49.90;100353.56;3122145;28;20573;-70
2022/05/08 07:13:50;;;;;;;9.88;4.85;;;;;;;15.11;49.58;100350.59;3121848;28;20071;-70
2022/05/08 07:15:22;;;;;;;8.93;4.50;;;;;;;15.09;48.70;100349.84;3122216;28;20050;-70
2022/05/08 07:16:55;;;;;;;12.13;4.70;;;;;;;14.91;48.33;100324.66;3114123;28;20577;-70